createdAt,value
2023-01-31T00:04:49.415Z,79.69
2023-01-31T00:09:51.582Z,79.73
2023-01-31T00:14:53.715Z,79.53
2023-01-31T00:19:55.828Z,79.44
2023-01-31T00:24:58.078Z,79.53
2023-01-31T00:30:00.346Z,79.47
2023-01-31T00:35:02.553Z,79.29
2023-01-31T00:40:07.150Z,79.35
2023-01-31T00:45:09.779Z,79.52
2023-01-31T00:50:15.151Z,79.28
2023-01-31T00:55:18.402Z,79.54
2023-01-31T01:00:20.982Z,79.23
2023-01-31T01:05:23.545Z,79.41
2023-01-31T01:10:26.149Z,79.09
2023-01-31T01:15:28.437Z,79.66
2023-01-31T01:20:31.185Z,79.31
2023-01-31T01:25:42.975Z,79.34
2023-01-31T01:30:45.083Z,79.35
2023-01-31T01:35:47.240Z,79.12
2023-01-31T01:40:49.396Z,79.24
2023-01-31T01:45:53.223Z,79.16
2023-01-31T01:50:55.467Z,79.26
2023-01-31T01:56:14.492Z,79.10
2023-01-31T02:01:17.206Z,79.07
2023-01-31T02:06:22.308Z,78.91
2023-01-31T02:11:27.388Z,78.97
2023-01-31T02:16:30.312Z,78.91
2023-01-31T02:21:54.587Z,79.13
2023-01-31T02:27:09.289Z,79.00
2023-01-31T02:32:16.257Z,79.07
2023-01-31T02:37:38.328Z,78.99
2023-01-31T02:42:54.652Z,78.82
2023-01-31T02:48:27.456Z,78.90
2023-01-31T02:53:51.923Z,78.94
2023-01-31T02:59:13.564Z,78.93
2023-01-31T03:04:15.832Z,78.77
2023-01-31T03:09:28.555Z,78.82
2023-01-31T03:14:36.424Z,78.93
2023-01-31T03:19:51.929Z,79.12
2023-01-31T03:24:54.573Z,78.87
2023-01-31T03:30:02.050Z,78.91
2023-01-31T03:35:06.972Z,78.66
2023-01-31T03:40:32.548Z,78.94
2023-01-31T03:45:55.257Z,78.90
2023-01-31T03:51:00.387Z,78.78
2023-01-31T03:56:25.539Z,79.20
2023-01-31T04:01:29.318Z,78.97
2023-01-31T04:06:32.225Z,79.01
2023-01-31T04:11:43.797Z,79.14
2023-01-31T04:16:46.192Z,79.03
2023-01-31T04:21:48.451Z,79.18
2023-01-31T04:26:50.694Z,79.26
2023-01-31T04:31:53.082Z,79.13
2023-01-31T04:36:55.339Z,79.38
2023-01-31T04:41:57.553Z,79.53
2023-01-31T04:47:00.090Z,79.30
2023-01-31T04:52:02.535Z,79.69
2023-01-31T04:57:04.995Z,79.66
2023-01-31T05:02:16.892Z,79.69
2023-01-31T05:07:25.308Z,79.63
2023-01-31T05:12:28.715Z,79.71
2023-01-31T05:17:31.435Z,79.72
2023-01-31T05:22:34.150Z,79.65
2023-01-31T05:27:36.364Z,79.96
2023-01-31T05:32:40.337Z,79.99
2023-01-31T05:37:46.353Z,80.10
2023-01-31T05:43:00.871Z,80.11
2023-01-31T05:48:03.523Z,79.96
2023-01-31T05:53:06.296Z,80.09
2023-01-31T05:58:11.658Z,80.12
2023-01-31T06:03:13.857Z,80.08
2023-01-31T06:08:18.820Z,80.32
2023-01-31T06:13:23.690Z,80.41
2023-01-31T06:18:26.730Z,79.99
2023-01-31T06:23:29.033Z,79.93
2023-01-31T06:28:31.821Z,80.05
2023-01-31T06:33:44.662Z,80.26
2023-01-31T06:38:51.281Z,80.32
2023-01-31T06:43:55.178Z,80.32
2023-01-31T06:48:57.614Z,80.20
2023-01-31T06:53:59.814Z,80.21
2023-01-31T06:59:02.202Z,80.27
2023-01-31T07:04:04.510Z,80.14
2023-01-31T07:09:07.735Z,79.99
2023-01-31T07:14:10.017Z,80.09
2023-01-31T07:19:12.170Z,79.98
2023-01-31T07:24:14.399Z,79.87
2023-01-31T07:29:16.607Z,79.98
2023-01-31T07:34:21.491Z,79.94
2023-01-31T07:39:24.069Z,79.71
2023-01-31T07:44:26.398Z,79.77
2023-01-31T07:49:28.598Z,79.77
2023-01-31T07:54:30.819Z,79.89
2023-01-31T07:59:36.056Z,79.74
2023-01-31T08:04:38.507Z,79.84
2023-01-31T08:09:40.776Z,79.85
2023-01-31T08:14:50.613Z,79.83
2023-01-31T08:19:54.887Z,79.80
2023-01-31T08:24:58.895Z,79.94
2023-01-31T08:30:01.051Z,79.88
2023-01-31T08:35:03.610Z,79.72
2023-01-31T08:40:06.570Z,79.77
2023-01-31T08:45:09.309Z,79.62
2023-01-31T08:50:26.808Z,79.65
2023-01-31T08:55:31.272Z,79.47
2023-01-31T09:00:34.399Z,79.65
2023-01-31T09:05:36.824Z,79.40
2023-01-31T09:10:39.657Z,79.35
2023-01-31T09:15:41.834Z,79.37
2023-01-31T09:20:43.902Z,79.36
2023-01-31T09:25:55.335Z,79.21
2023-01-31T09:31:03.459Z,79.18
2023-01-31T09:36:07.530Z,79.18
2023-01-31T09:41:30.945Z,79.36
2023-01-31T09:46:38.032Z,79.14
2023-01-31T09:51:40.658Z,79.07
2023-01-31T09:56:50.846Z,78.96
2023-01-31T10:02:17.120Z,78.86
2023-01-31T10:07:44.489Z,78.87
2023-01-31T10:12:52.432Z,78.95
2023-01-31T10:18:02.739Z,78.84
2023-01-31T10:23:13.699Z,78.64
2023-01-31T10:28:21.779Z,78.70
2023-01-31T10:33:30.385Z,78.69
2023-01-31T10:38:46.067Z,78.66
2023-01-31T10:43:58.146Z,78.37
2023-01-31T10:49:00.416Z,78.50
2023-01-31T10:54:23.638Z,78.37
2023-01-31T10:59:38.095Z,78.56
2023-01-31T11:04:46.142Z,78.55
2023-01-31T11:09:54.647Z,78.50
2023-01-31T11:15:14.992Z,78.42
2023-01-31T11:20:32.374Z,78.38
2023-01-31T11:25:36.206Z,78.17
2023-01-31T11:30:42.761Z,78.27
2023-01-31T11:35:52.192Z,78.32
2023-01-31T11:40:54.433Z,78.06
2023-01-31T11:46:01.706Z,78.11
2023-01-31T11:51:04.872Z,77.83
2023-01-31T11:56:14.070Z,77.88
2023-01-31T12:01:23.754Z,77.96
2023-01-31T12:06:37.389Z,77.66
2023-01-31T12:11:53.155Z,77.67
2023-01-31T12:16:56.686Z,77.67
2023-01-31T12:22:40.061Z,77.88
2023-01-31T12:28:01.912Z,77.68
2023-01-31T12:33:17.246Z,77.73
2023-01-31T12:38:28.491Z,77.87
2023-01-31T12:43:48.882Z,77.83
2023-01-31T12:49:15.149Z,77.87
2023-01-31T12:54:30.920Z,77.55
2023-01-31T12:59:45.455Z,77.76
2023-01-31T13:04:50.795Z,77.59
2023-01-31T13:09:54.294Z,77.67
2023-01-31T13:15:07.927Z,77.64
2023-01-31T13:20:37.275Z,77.55
2023-01-31T13:25:43.549Z,77.62
2023-01-31T13:31:00.148Z,77.63
2023-01-31T13:36:26.206Z,77.65
2023-01-31T13:41:40.232Z,77.34
2023-01-31T13:46:53.385Z,77.65
2023-01-31T13:52:14.373Z,77.68
2023-01-31T13:57:45.770Z,77.57
2023-01-31T14:03:08.433Z,77.82
2023-01-31T14:08:29.598Z,77.61
2023-01-31T14:13:31.787Z,77.43
2023-01-31T14:18:39.349Z,77.68
2023-01-31T14:23:47.484Z,77.57
2023-01-31T14:28:52.849Z,77.66
2023-01-31T14:33:57.680Z,77.56
2023-01-31T14:39:12.306Z,77.66
2023-01-31T14:44:30.650Z,77.90
2023-01-31T14:49:40.195Z,77.79
2023-01-31T14:55:04.169Z,78.05
2023-01-31T15:00:20.944Z,78.05
2023-01-31T15:05:41.105Z,78.02
2023-01-31T15:10:58.660Z,78.02
2023-01-31T15:16:02.109Z,78.03
2023-01-31T15:21:06.202Z,78.09
2023-01-31T15:26:09.569Z,78.00
2023-01-31T15:31:23.860Z,78.21
2023-01-31T15:36:32.605Z,78.27
2023-01-31T15:41:40.396Z,78.38
2023-01-31T15:46:45.417Z,78.08
2023-01-31T15:52:08.416Z,78.58
2023-01-31T15:57:16.285Z,78.63
2023-01-31T16:02:33.716Z,78.72
2023-01-31T16:07:35.969Z,78.36
2023-01-31T16:12:42.566Z,78.86
2023-01-31T16:17:45.181Z,78.64
2023-01-31T16:22:56.775Z,78.89
2023-01-31T16:28:11.419Z,79.02
2023-01-31T16:33:19.066Z,78.92
2023-01-31T16:38:27.275Z,79.14
2023-01-31T16:43:31.125Z,79.06
2023-01-31T16:48:36.181Z,79.02
2023-01-31T16:53:40.302Z,79.29
2023-01-31T16:58:56.601Z,79.69
2023-01-31T17:04:13.448Z,80.04
2023-01-31T17:09:20.240Z,79.81
2023-01-31T17:19:41.583Z,80.15
2023-01-31T17:24:45.084Z,80.21
2023-01-31T17:29:47.664Z,80.19
2023-01-31T17:34:49.912Z,80.29
2023-01-31T17:39:52.685Z,80.38
2023-01-31T17:44:56.247Z,80.74
2023-01-31T17:50:00.445Z,80.56
2023-01-31T17:55:06.441Z,80.55
2023-01-31T18:00:12.961Z,80.48
2023-01-31T18:05:20.490Z,80.47
2023-01-31T18:10:27.929Z,80.58
2023-01-31T18:15:31.406Z,80.58
2023-01-31T18:20:33.740Z,80.75
2023-01-31T18:25:39.894Z,80.66
2023-01-31T18:30:42.329Z,80.45
2023-01-31T18:35:45.089Z,80.56
2023-01-31T18:40:47.526Z,80.12
2023-01-31T18:45:52.591Z,79.84
2023-01-31T18:50:55.799Z,80.21
2023-01-31T18:56:05.554Z,80.39
2023-01-31T19:01:13.886Z,80.30
2023-01-31T19:06:18.606Z,80.37
2023-01-31T19:11:23.257Z,80.40
2023-01-31T19:16:29.488Z,80.55
2023-01-31T19:21:33.655Z,80.39
2023-01-31T19:26:36.442Z,80.22
2023-01-31T19:31:38.907Z,79.98
2023-01-31T19:36:44.885Z,80.46
2023-01-31T19:41:47.264Z,80.40
2023-01-31T19:46:52.395Z,79.74
2023-01-31T19:51:54.720Z,80.23
2023-01-31T19:56:57.099Z,80.14
2023-01-31T20:01:59.416Z,80.38
2023-01-31T20:07:01.776Z,80.57
2023-01-31T20:12:04.447Z,80.55
2023-01-31T20:17:08.533Z,80.46
2023-01-31T20:22:10.759Z,80.60
2023-01-31T20:27:13.031Z,80.78
2023-01-31T20:32:17.553Z,80.46
2023-01-31T20:37:19.782Z,80.93
2023-01-31T20:42:22.096Z,80.90
2023-01-31T20:47:24.458Z,81.04
2023-01-31T20:52:26.772Z,80.42
2023-01-31T20:57:28.996Z,81.05
2023-01-31T21:02:31.294Z,80.85
2023-01-31T21:07:33.517Z,81.05
2023-01-31T21:12:35.860Z,81.10
2023-01-31T21:17:40.578Z,81.05
2023-01-31T21:22:42.989Z,81.42
2023-01-31T21:27:45.271Z,81.39
2023-01-31T21:32:47.553Z,81.52
2023-01-31T21:37:50.130Z,81.56
2023-01-31T21:42:53.567Z,81.36
2023-01-31T21:48:15.592Z,81.66
2023-01-31T21:53:18.112Z,81.46
2023-01-31T21:58:21.083Z,81.57
2023-01-31T22:03:23.396Z,81.66
2023-01-31T22:08:25.632Z,81.56
2023-01-31T22:13:27.884Z,81.56
2023-01-31T22:18:30.299Z,81.30
2023-01-31T22:23:33.429Z,81.33
2023-01-31T22:28:36.038Z,81.52
2023-01-31T22:33:40.120Z,81.64
2023-01-31T22:38:42.768Z,81.38
2023-01-31T22:43:48.526Z,81.09
2023-01-31T22:48:51.283Z,81.12
2023-01-31T22:53:55.073Z,81.13
2023-01-31T22:59:00.723Z,81.29
2023-01-31T23:04:05.559Z,81.42
2023-01-31T23:09:07.836Z,81.22
2023-01-31T23:14:10.089Z,81.40
2023-01-31T23:19:13.202Z,81.37
2023-01-31T23:24:15.527Z,81.25
2023-01-31T23:29:17.799Z,81.09
2023-01-31T23:34:20.079Z,81.25
2023-01-31T23:39:22.303Z,81.48
2023-01-31T23:44:24.576Z,81.32
2023-01-31T23:49:26.845Z,81.29
2023-01-31T23:54:29.123Z,81.29
2023-01-31T23:59:31.665Z,81.75
